Time;durP1;ratioP1;P1;durP2;ratioP2;P2;SDS_P1;SDS_P2;PMS_P1;PMS_P2;Temp;Humidity;BMP_temperature;BMP_pressure;BME280_temperature;BME280_humidity;BME280_pressure;Samples;Min_cycle;Max_cycle;Signal;HPM_P1;HPM_P2
2022/09/02 00:01:14;;;;;;;3.50;3.20;;;;;;;20.31;49.68;99305.13;4927907;29;20493;-78
2022/09/02 00:03:41;;;;;;;4.60;4.20;;;;;;;20.21;51.36;99309.78;4925624;29;20469;-78
2022/09/02 00:06:07;;;;;;;3.23;3.03;;;;;;;19.97;52.36;99308.78;4928145;29;20242;-81
2022/09/02 00:08:32;;;;;;;4.17;3.67;;;;;;;19.79;52.59;99306.22;4927557;29;20525;-81
2022/09/02 00:11:00;;;;;;;3.70;3.40;;;;;;;19.61;53.38;99310.84;4928248;29;20202;-78
2022/09/02 00:13:27;;;;;;;4.20;3.67;;;;;;;19.44;53.56;99305.47;4928509;29;20218;-77
2022/09/02 00:15:53;;;;;;;4.53;3.20;;;;;;;19.33;54.25;99311.09;4928669;29;20458;-78
2022/09/02 00:18:18;;;;;;;5.20;3.47;;;;;;;19.25;54.48;99311.06;4926126;29;20477;-78
2022/09/02 00:20:45;;;;;;;8.27;4.30;;;;;;;19.12;54.81;99308.84;4928820;29;20832;-78
2022/09/02 00:23:12;;;;;;;3.70;3.40;;;;;;;19.03;55.32;99307.13;4928636;29;20265;-82
2022/09/02 00:25:39;;;;;;;3.47;3.17;;;;;;;18.92;55.43;99312.75;4929464;29;20462;-81
2022/09/02 00:28:05;;;;;;;7.00;3.67;;;;;;;18.84;55.91;99304.72;4926966;29;20477;-77
2022/09/02 00:30:32;;;;;;;3.80;3.50;;;;;;;18.75;56.04;99311.81;4926479;29;20462;-78
2022/09/02 00:32:58;;;;;;;5.33;3.27;;;;;;;18.65;56.51;99309.22;4927959;29;20514;-79
2022/09/02 00:35:23;;;;;;;3.80;3.40;;;;;;;18.52;56.86;99312.31;4924834;29;20508;-78
2022/09/02 00:37:49;;;;;;;3.80;3.50;;;;;;;18.39;57.37;99313.69;4927389;29;20217;-78
2022/09/02 00:40:15;;;;;;;5.77;3.87;;;;;;;18.24;57.81;99308.94;4902589;29;20229;-80
2022/09/02 00:42:40;;;;;;;4.27;3.97;;;;;;;18.13;57.88;99309.19;4925042;29;20246;-82
2022/09/02 00:45:07;;;;;;;6.30;4.77;;;;;;;18.03;58.44;99303.94;4928166;29;20782;-78
2022/09/02 00:47:33;;;;;;;5.63;5.13;;;;;;;17.95;58.64;99297.72;4931055;29;20676;-78
2022/09/02 00:49:59;;;;;;;5.93;3.57;;;;;;;17.88;58.88;99302.81;4909650;29;20540;-78
2022/09/02 00:52:32;;;;;;;4.30;4.00;;;;;;;17.84;59.12;99306.75;4925016;29;20568;-79
2022/09/02 00:55:03;;;;;;;4.33;3.93;;;;;;;17.79;59.18;99299.22;4931901;29;20523;-79
2022/09/02 00:57:47;;;;;;;4.53;4.13;;;;;;;17.75;59.61;99302.34;4932955;29;20813;-78
2022/09/02 01:00:28;;;;;;;4.10;3.80;;;;;;;17.72;59.66;99306.13;4970373;23;21062;-75
2022/09/02 01:02:57;;;;;;;4.80;4.40;;;;;;;17.70;60.01;99303.59;4923271;29;20471;-74
2022/09/02 01:05:26;;;;;;;4.87;4.40;;;;;;;17.65;60.44;99302.38;4926595;29;20469;-75
2022/09/02 01:07:53;;;;;;;5.20;4.23;;;;;;;17.61;60.32;99301.03;4927220;29;20468;-75
2022/09/02 01:10:23;;;;;;;7.53;4.15;;;;;;;17.57;60.36;99297.00;4940794;28;20483;-75
2022/09/02 01:12:54;;;;;;;4.87;4.13;;;;;;;17.60;60.47;99294.03;4946262;28;20203;-74
2022/09/02 01:15:20;;;;;;;5.00;4.50;;;;;;;17.61;60.26;99293.91;4945797;29;20476;-75
2022/09/02 01:17:47;;;;;;;6.47;4.43;;;;;;;17.62;60.30;99294.72;4946672;28;20462;-75
2022/09/02 01:20:17;;;;;;;4.23;3.80;;;;;;;17.64;60.20;99301.56;4944760;28;20245;-76
2022/09/02 01:22:44;;;;;;;4.57;4.18;;;;;;;17.65;60.48;99294.41;4943806;28;20479;-75
2022/09/02 01:25:14;;;;;;;5.30;4.90;;;;;;;17.59;60.80;99292.38;4945880;29;20221;-74
2022/09/02 01:27:40;;;;;;;4.70;4.30;;;;;;;17.51;60.72;99300.25;4916329;29;20479;-75
2022/09/02 01:30:09;;;;;;;5.57;4.47;;;;;;;17.41;61.25;99292.34;4941549;28;20490;-76
2022/09/02 01:32:35;;;;;;;4.90;3.83;;;;;;;17.34;61.41;99286.81;4944719;28;20503;-75
2022/09/02 01:35:00;;;;;;;4.00;3.50;;;;;;;17.32;61.38;99291.41;4942638;28;20568;-74
2022/09/02 01:37:26;;;;;;;4.40;4.00;;;;;;;17.28;61.61;99292.69;4953755;28;20214;-76
2022/09/02 01:39:52;;;;;;;4.20;3.77;;;;;;;17.21;61.83;99288.97;4944311;28;20313;-75
2022/09/02 01:42:19;;;;;;;5.47;5.00;;;;;;;17.09;62.10;99290.13;4945544;28;20705;-75
2022/09/02 01:44:44;;;;;;;6.82;5.97;;;;;;;17.01;62.26;99282.91;4939930;28;20210;-76
2022/09/02 01:47:17;;;;;;;5.68;4.30;;;;;;;16.89;62.46;99284.91;4932369;29;20203;-75
2022/09/02 01:49:45;;;;;;;5.65;4.38;;;;;;;16.77;62.67;99286.09;4928167;29;20313;-75
2022/09/02 01:52:11;;;;;;;5.10;4.45;;;;;;;16.61;62.91;99281.38;4947192;28;20237;-76
2022/09/02 01:54:37;;;;;;;4.90;4.50;;;;;;;16.50;63.36;99276.22;4928126;29;20189;-75
2022/09/02 01:57:03;;;;;;;5.60;4.80;;;;;;;16.48;63.13;99281.69;4946338;28;20658;-75
2022/09/02 01:59:29;;;;;;;6.13;5.53;;;;;;;16.45;63.47;99281.97;4950358;28;20232;-74
2022/09/02 02:01:55;;;;;;;7.77;4.97;;;;;;;16.49;63.01;99280.69;4950111;28;20486;-75
2022/09/02 02:04:23;;;;;;;6.10;4.73;;;;;;;16.49;63.28;99277.19;4949818;29;20209;-75
2022/09/02 02:06:50;;;;;;;5.38;4.90;;;;;;;16.44;63.66;99280.28;4963758;28;20195;-75
2022/09/02 02:09:16;;;;;;;5.20;4.70;;;;;;;16.43;63.63;99273.31;4942244;28;20528;-75
2022/09/02 02:11:45;;;;;;;4.70;4.15;;;;;;;16.44;63.50;99276.78;4947752;29;20284;-75
2022/09/02 02:14:13;;;;;;;5.47;4.97;;;;;;;16.37;64.08;99273.91;4949500;28;20193;-74
2022/09/02 02:16:44;;;;;;;5.90;5.03;;;;;;;16.36;63.97;99277.50;4949228;28;20194;-75
2022/09/02 02:19:10;;;;;;;4.80;4.45;;;;;;;16.38;63.86;99281.69;4950002;28;20229;-75
2022/09/02 02:21:37;;;;;;;5.45;4.95;;;;;;;16.41;63.90;99285.88;4957367;28;20297;-75
2022/09/02 02:24:02;;;;;;;5.70;5.13;;;;;;;16.45;63.76;99283.78;4945499;29;20260;-75
2022/09/02 02:26:29;;;;;;;4.53;4.20;;;;;;;16.48;63.79;99283.50;4946434;28;20329;-74
2022/09/02 02:28:55;;;;;;;5.80;5.20;;;;;;;16.47;63.83;99281.81;4944057;28;20205;-75
2022/09/02 02:31:23;;;;;;;5.73;5.00;;;;;;;16.43;63.67;99280.44;4953203;28;20206;-75
2022/09/02 02:33:50;;;;;;;5.50;5.10;;;;;;;16.34;63.93;99284.78;4960500;28;20212;-76
2022/09/02 02:36:16;;;;;;;5.05;4.55;;;;;;;16.25;64.38;99283.78;4942471;29;20238;-74
2022/09/02 02:38:45;;;;;;;4.80;4.30;;;;;;;16.23;64.47;99282.25;4946984;28;20241;-74
2022/09/02 02:41:11;;;;;;;5.20;4.70;;;;;;;16.24;64.34;99289.25;4962164;28;20213;-75
2022/09/02 02:43:37;;;;;;;6.00;5.10;;;;;;;16.27;64.38;99283.66;4949228;29;20263;-75
2022/09/02 02:46:04;;;;;;;5.75;5.25;;;;;;;16.27;64.48;99281.84;4947022;29;20661;-75
2022/09/02 02:48:29;;;;;;;6.00;5.05;;;;;;;16.26;64.53;99292.59;4941229;28;20666;-75
2022/09/02 02:50:55;;;;;;;6.30;5.80;;;;;;;16.22;64.65;99288.56;4947954;28;20221;-75
2022/09/02 02:53:21;;;;;;;5.40;4.80;;;;;;;16.23;64.71;99290.22;4961774;28;20205;-74
2022/09/02 02:55:46;;;;;;;5.07;4.67;;;;;;;16.18;64.77;99282.72;4948116;28;20197;-74
2022/09/02 02:58:12;;;;;;;5.80;5.20;;;;;;;16.18;64.89;99284.53;4957612;28;20896;-75
2022/09/02 03:00:37;;;;;;;5.43;4.93;;;;;;;16.17;65.06;99280.19;4945470;28;20503;-74
2022/09/02 03:03:07;;;;;;;5.17;4.77;;;;;;;16.18;65.17;99284.53;4945616;28;20267;-75
2022/09/02 03:05:34;;;;;;;4.63;4.20;;;;;;;16.19;64.97;99292.31;4950160;29;20198;-75
2022/09/02 03:08:01;;;;;;;5.57;4.85;;;;;;;16.18;65.09;99293.31;4932563;29;20221;-75
2022/09/02 03:10:32;;;;;;;6.00;5.45;;;;;;;16.17;65.34;99288.13;4944285;28;20316;-76
2022/09/02 03:12:59;;;;;;;5.35;4.95;;;;;;;16.08;65.61;99293.31;4963054;28;20268;-75
2022/09/02 03:15:26;;;;;;;5.82;5.32;;;;;;;16.01;65.65;99296.66;4963194;28;20249;-74
2022/09/02 03:17:53;;;;;;;5.82;5.30;;;;;;;15.94;65.82;99299.03;4938058;28;20559;-75
2022/09/02 03:20:20;;;;;;;5.90;5.30;;;;;;;15.83;66.01;99299.19;4960018;28;20215;-74
2022/09/02 03:22:53;;;;;;;5.07;4.68;;;;;;;15.77;66.11;99307.66;4958890;28;20198;-74
2022/09/02 03:25:19;;;;;;;7.97;5.05;;;;;;;15.66;66.32;99305.94;4944122;28;20689;-73
2022/09/02 03:27:46;;;;;;;6.40;4.78;;;;;;;15.63;66.34;99301.75;4946325;28;20201;-73
2022/09/02 03:30:17;;;;;;;6.28;5.47;;;;;;;15.65;66.36;99307.75;4939187;28;20216;-74
2022/09/02 03:32:42;;;;;;;5.60;5.20;;;;;;;15.61;66.47;99301.06;4959627;28;20192;-74
2022/09/02 03:35:11;;;;;;;5.30;4.80;;;;;;;15.58;66.75;99296.06;4944755;28;20205;-74
2022/09/02 03:37:37;;;;;;;5.65;4.85;;;;;;;15.53;67.15;99297.41;4941100;28;20229;-73
2022/09/02 03:40:10;;;;;;;6.07;5.57;;;;;;;15.41;67.54;99286.13;4941521;28;20635;-75
2022/09/02 03:42:36;;;;;;;6.45;5.95;;;;;;;15.35;67.79;99295.44;4940466;28;20462;-74
2022/09/02 03:45:02;;;;;;;7.83;5.63;;;;;;;15.30;67.80;99291.53;4956499;28;20203;-73
2022/09/02 03:47:29;;;;;;;9.25;5.63;;;;;;;15.26;68.05;99293.63;4939051;28;20590;-73
2022/09/02 03:49:56;;;;;;;5.45;5.00;;;;;;;15.27;68.26;99296.13;4938877;28;21059;-73
2022/09/02 03:52:23;;;;;;;9.43;5.30;;;;;;;15.30;68.10;99295.00;4942122;28;20182;-73
2022/09/02 03:54:49;;;;;;;6.93;5.75;;;;;;;15.33;67.93;99294.72;4954676;28;20590;-73
2022/09/02 03:57:14;;;;;;;5.33;4.93;;;;;;;15.37;67.85;99287.38;4941053;28;20183;-74
2022/09/02 03:59:40;;;;;;;5.77;5.20;;;;;;;15.40;67.83;99295.03;4941973;28;20230;-75
2022/09/02 04:02:06;;;;;;;7.00;5.97;;;;;;;15.40;67.87;99295.03;4945066;29;20247;-74
2022/09/02 04:04:32;;;;;;;6.25;5.65;;;;;;;15.46;68.39;99291.84;4958212;28;20498;-74
2022/09/02 04:06:58;;;;;;;5.60;5.10;;;;;;;15.46;68.37;99291.84;4957814;28;20704;-73
2022/09/02 04:09:25;;;;;;;6.85;5.30;;;;;;;15.47;68.20;99293.50;4946455;28;20480;-73
2022/09/02 04:11:50;;;;;;;5.20;4.70;;;;;;;15.43;68.18;99290.31;4947329;28;20912;-74
2022/09/02 04:14:17;;;;;;;5.63;4.90;;;;;;;15.43;68.14;99295.59;4963085;28;20213;-73
2022/09/02 04:16:42;;;;;;;5.47;5.00;;;;;;;15.37;68.07;99293.50;4941951;28;20574;-74
2022/09/02 04:19:08;;;;;;;7.07;5.03;;;;;;;15.31;67.99;99290.56;4943106;29;20319;-75
2022/09/02 04:21:36;;;;;;;5.47;4.90;;;;;;;15.27;68.05;99285.53;4960026;28;20252;-74
2022/09/02 04:24:04;;;;;;;6.68;5.30;;;;;;;15.21;68.31;99291.38;4944054;29;20801;-73
2022/09/02 04:26:31;;;;;;;4.97;4.55;;;;;;;15.17;68.17;99287.31;4961651;28;20475;-74
2022/09/02 04:28:58;;;;;;;5.22;4.78;;;;;;;15.14;68.45;99287.59;4946265;29;20217;-74
2022/09/02 04:31:27;;;;;;;7.20;5.88;;;;;;;15.17;68.42;99287.31;4945467;29;20193;-74
2022/09/02 04:33:53;;;;;;;6.18;5.57;;;;;;;15.21;68.23;99286.09;4941460;28;20235;-74
2022/09/02 04:36:21;;;;;;;5.72;5.07;;;;;;;15.24;68.29;99284.97;4946403;28;20188;-73
2022/09/02 04:38:49;;;;;;;6.88;6.35;;;;;;;15.18;68.31;99288.16;4943885;28;20253;-73
2022/09/02 04:41:23;;;;;;;5.88;5.38;;;;;;;15.13;68.33;99291.22;4944555;29;20221;-74
2022/09/02 04:43:54;;;;;;;6.65;6.03;;;;;;;15.09;68.57;99295.09;4943738;28;20232;-74
2022/09/02 04:46:21;;;;;;;6.13;5.53;;;;;;;15.06;68.56;99292.72;4942622;28;20201;-74
2022/09/02 04:48:47;;;;;;;6.20;5.60;;;;;;;15.02;68.86;99286.84;4945480;29;20211;-73
2022/09/02 04:51:16;;;;;;;7.40;6.38;;;;;;;15.00;68.76;99294.09;4959874;28;20220;-73
2022/09/02 04:53:47;;;;;;;6.50;5.90;;;;;;;14.97;68.74;99288.22;4942862;29;20556;-73
2022/09/02 04:56:17;;;;;;;5.45;4.70;;;;;;;14.89;69.04;99288.06;4944146;28;20205;-73
2022/09/02 04:58:43;;;;;;;7.28;6.13;;;;;;;14.82;69.11;99285.97;4944878;29;20259;-73
2022/09/02 05:01:14;;;;;;;9.68;5.03;;;;;;;14.75;69.10;99295.38;4944333;29;20237;-73
2022/09/02 05:03:43;;;;;;;8.35;5.80;;;;;;;14.71;69.10;99293.13;4961688;28;20201;-74
2022/09/02 05:06:13;;;;;;;6.70;6.05;;;;;;;14.66;69.20;99296.16;4959071;28;20291;-73
2022/09/02 05:08:42;;;;;;;6.00;5.03;;;;;;;14.69;69.52;99295.91;4961919;28;20296;-73
2022/09/02 05:11:17;;;;;;;6.97;5.80;;;;;;;14.89;69.01;99286.25;4945348;28;20197;-73
2022/09/02 05:13:43;;;;;;;5.18;4.78;;;;;;;15.24;68.31;99293.75;4961192;28;20215;-73
2022/09/02 05:16:09;;;;;;;4.90;4.50;;;;;;;15.58;67.09;99290.75;4950640;28;20296;-73
2022/09/02 05:18:34;;;;;;;6.63;4.43;;;;;;;15.99;65.87;99291.50;4945643;28;20225;-73
2022/09/02 05:21:05;;;;;;;4.35;3.95;;;;;;;16.39;64.50;99295.81;4946769;28;20233;-74
2022/09/02 05:23:33;;;;;;;5.75;4.70;;;;;;;16.74;63.53;99296.94;4955092;28;20296;-74
2022/09/02 05:26:04;;;;;;;4.60;4.20;;;;;;;16.90;62.59;99288.41;4962850;28;20208;-74
2022/09/02 05:28:30;;;;;;;5.43;4.93;;;;;;;16.80;62.52;99283.97;4945167;28;20207;-74
2022/09/02 05:31:04;;;;;;;11.32;4.82;;;;;;;16.55;62.89;99290.75;4947101;28;20701;-73
2022/09/02 05:33:32;;;;;;;4.80;4.20;;;;;;;16.32;63.61;99287.56;4956547;28;20196;-75
2022/09/02 05:35:58;;;;;;;5.43;4.90;;;;;;;16.20;63.91;99282.56;4944883;28;20193;-73
2022/09/02 05:38:24;;;;;;;8.03;5.57;;;;;;;16.05;64.31;99287.47;4959938;28;20762;-74
2022/09/02 05:40:50;;;;;;;6.22;5.72;;;;;;;15.95;64.63;99292.75;4941768;28;21132;-74
2022/09/02 05:43:16;;;;;;;5.63;4.93;;;;;;;15.89;64.92;99285.38;4958474;28;20209;-74
2022/09/02 05:45:42;;;;;;;7.13;5.50;;;;;;;15.86;64.99;99286.47;4938476;28;20562;-74
2022/09/02 05:50:52;;;;;;;4.97;4.50;;;;;;;15.71;65.49;99293.16;4952097;28;20418;-75
2022/09/02 05:53:18;;;;;;;6.50;4.87;;;;;;;15.66;65.71;99296.22;4957805;28;20673;-74
2022/09/02 05:55:43;;;;;;;6.03;5.63;;;;;;;15.67;66.01;99297.88;4934624;28;20483;-74
2022/09/02 05:58:09;;;;;;;5.30;4.78;;;;;;;15.76;65.96;99300.69;4959314;28;20204;-74
2022/09/02 06:00:36;;;;;;;13.10;7.10;;;;;;;16.11;65.04;99298.31;4945087;29;20406;-74
2022/09/02 06:03:02;;;;;;;11.73;5.65;;;;;;;16.69;63.73;99299.19;4933885;28;20235;-75
2022/09/02 06:05:32;;;;;;;8.02;7.25;;;;;;;17.45;61.97;99302.53;4952846;28;20196;-75
2022/09/02 06:08:06;;;;;;;5.82;5.00;;;;;;;18.35;60.08;99295.41;4943294;29;20186;-74
2022/09/02 06:10:32;;;;;;;6.57;5.97;;;;;;;19.18;58.06;99284.25;4945117;28;20770;-76
2022/09/02 06:12:58;;;;;;;6.33;4.83;;;;;;;19.95;56.11;99284.09;4943057;29;20218;-75
2022/09/02 06:15:29;;;;;;;5.20;4.70;;;;;;;20.65;54.45;99285.41;4942695;28;20499;-75
2022/09/02 06:17:58;;;;;;;6.77;3.93;;;;;;;21.24;53.15;99287.72;4941754;28;20776;-75
2022/09/02 06:20:27;;;;;;;4.90;4.20;;;;;;;21.77;51.60;99284.28;4944751;28;20469;-76
2022/09/02 06:22:53;;;;;;;7.13;5.05;;;;;;;22.56;48.87;99283.97;4959489;28;20433;-75
2022/09/02 06:25:19;;;;;;;4.83;4.13;;;;;;;22.94;48.20;99278.53;4943437;29;20545;-75
2022/09/02 06:27:46;;;;;;;5.70;4.70;;;;;;;23.18;47.74;99272.91;4958875;28;20773;-75
2022/09/02 06:30:12;;;;;;;5.73;4.50;;;;;;;23.51;47.14;99263.59;4940989;29;20821;-75
2022/09/02 06:32:37;;;;;;;7.47;4.80;;;;;;;23.40;46.99;99262.25;4943268;28;20189;-75
2022/09/02 06:35:08;;;;;;;6.03;5.33;;;;;;;22.91;47.86;99262.84;4957346;28;20752;-74
2022/09/02 06:37:34;;;;;;;6.60;4.73;;;;;;;22.24;49.21;99269.88;4956828;28;20450;-75
2022/09/02 06:39:59;;;;;;;5.90;5.30;;;;;;;21.62;50.47;99272.69;4944049;28;20472;-74
2022/09/02 06:42:27;;;;;;;5.50;5.00;;;;;;;20.99;51.59;99271.81;4937380;28;20238;-74
2022/09/02 06:45:07;;;;;;;6.90;5.97;;;;;;;20.52;53.06;99277.91;4958811;28;20417;-74
2022/09/02 06:47:33;;;;;;;6.73;6.13;;;;;;;20.15;53.76;99275.78;4959232;28;20744;-75
2022/09/02 06:49:59;;;;;;;6.23;5.63;;;;;;;19.85;54.49;99272.78;4940733;28;20435;-75
2022/09/02 06:52:24;;;;;;;6.27;5.50;;;;;;;19.63;55.18;99272.41;4944257;29;20229;-75
2022/09/02 06:54:50;;;;;;;7.07;6.30;;;;;;;19.46;55.74;99274.16;4927808;29;20417;-76
2022/09/02 06:57:17;;;;;;;7.10;6.40;;;;;;;19.27;56.30;99273.63;4950349;28;20974;-74
2022/09/02 07:02:25;;;;;;;9.43;7.30;;;;;;;18.98;57.55;99262.38;4906076;29;20496;-77
2022/09/02 07:05:09;;;;;;;8.77;7.70;;;;;;;18.86;57.57;99265.47;4901571;29;20460;-79
2022/09/02 07:07:40;;;;;;;6.70;5.53;;;;;;;18.75;58.25;99264.75;4902619;29;20187;-76
2022/09/02 07:10:11;;;;;;;6.97;6.07;;;;;;;18.70;58.41;99269.69;4918063;29;20532;-77
2022/09/02 07:12:39;;;;;;;7.33;6.53;;;;;;;18.66;58.79;99260.38;4889739;29;20449;-77
2022/09/02 07:15:09;;;;;;;8.33;6.17;;;;;;;18.64;59.11;99264.19;4903068;29;20526;-77
2022/09/02 07:17:37;;;;;;;8.07;6.73;;;;;;;18.61;59.40;99262.66;4891374;29;20831;-77
2022/09/02 07:20:07;;;;;;;8.47;7.00;;;;;;;18.63;59.35;99262.50;4902237;29;20577;-77
2022/09/02 07:22:50;;;;;;;9.17;6.80;;;;;;;18.68;59.42;99268.16;4887505;29;21093;-78
2022/09/02 07:25:18;;;;;;;6.57;6.00;;;;;;;18.76;59.35;99258.44;4896643;29;20463;-77
2022/09/02 07:27:46;;;;;;;7.90;6.83;;;;;;;19.26;58.45;99256.00;4902702;29;20816;-77
2022/09/02 07:30:12;;;;;;;6.10;5.50;;;;;;;20.18;56.12;99246.94;4903214;29;20466;-78
2022/09/02 07:32:41;;;;;;;8.10;5.27;;;;;;;21.17;53.26;99245.69;4906061;29;20244;-77
2022/09/02 07:35:08;;;;;;;11.03;5.53;;;;;;;22.10;50.86;99250.09;4905700;29;20574;-77
2022/09/02 07:37:34;;;;;;;6.80;5.20;;;;;;;23.07;48.33;99241.25;4904161;29;20988;-77
2022/09/02 07:40:05;;;;;;;5.70;5.20;;;;;;;24.01;46.25;99238.56;4896186;29;20514;-78
2022/09/02 07:42:30;;;;;;;4.77;4.17;;;;;;;24.72;44.37;99241.13;4897915;29;20842;-77
2022/09/02 07:44:56;;;;;;;5.00;4.50;;;;;;;25.41;42.94;99238.53;4903347;29;20445;-78
2022/09/02 07:47:22;;;;;;;8.33;5.33;;;;;;;26.08;41.17;99234.94;4905250;29;20204;-78
2022/09/02 07:49:47;;;;;;;5.30;4.70;;;;;;;26.50;40.35;99235.53;4914204;29;20872;-78
2022/09/02 07:52:13;;;;;;;5.00;4.60;;;;;;;26.70;39.52;99244.41;4899658;29;20194;-78
2022/09/02 07:54:38;;;;;;;4.63;4.30;;;;;;;26.97;39.42;99235.44;4905276;29;20675;-78
2022/09/02 07:57:04;;;;;;;5.50;4.70;;;;;;;27.40;38.36;99241.06;4902071;29;20184;-78
2022/09/02 07:59:32;;;;;;;5.03;4.63;;;;;;;27.75;37.50;99229.84;4903488;29;20187;-78
2022/09/02 08:01:59;;;;;;;4.60;4.00;;;;;;;27.98;36.56;99234.72;4904258;29;20487;-78
2022/09/02 08:04:25;;;;;;;4.88;4.40;;;;;;;28.37;34.73;99238.09;4887059;29;20450;-78
2022/09/02 08:06:52;;;;;;;5.13;3.70;;;;;;;28.60;34.51;99227.50;4889223;29;20185;-78
2022/09/02 08:09:18;;;;;;;3.80;3.50;;;;;;;28.89;33.99;99236.75;4904090;29;20208;-78
2022/09/02 08:11:46;;;;;;;3.60;3.30;;;;;;;29.15;33.07;99229.38;4907296;29;20434;-77
2022/09/02 08:14:16;;;;;;;6.80;3.67;;;;;;;29.14;32.78;99221.50;4902388;29;20482;-78
2022/09/02 08:16:41;;;;;;;5.23;3.90;;;;;;;29.23;32.33;99217.44;4905040;29;20445;-78
2022/09/02 08:19:07;;;;;;;3.97;3.13;;;;;;;29.23;31.80;99226.38;4902989;29;20795;-78
2022/09/02 08:21:32;;;;;;;3.77;3.47;;;;;;;29.23;31.29;99220.97;4905930;29;20257;-78
2022/09/02 08:23:59;;;;;;;4.07;3.67;;;;;;;29.34;30.97;99224.75;4902049;29;20187;-78
2022/09/02 08:26:27;;;;;;;3.23;3.03;;;;;;;29.38;30.86;99217.00;4906956;29;20199;-79
2022/09/02 08:28:56;;;;;;;3.70;3.40;;;;;;;29.39;30.76;99224.09;4902125;29;20841;-79
2022/09/02 08:31:21;;;;;;;3.60;2.93;;;;;;;29.28;30.93;99218.41;4921959;29;20506;-79
2022/09/02 08:33:47;;;;;;;3.60;3.30;;;;;;;29.43;31.09;99209.84;4919607;29;20475;-79
2022/09/02 08:36:13;;;;;;;4.07;3.47;;;;;;;29.54;30.72;99217.22;4919069;29;20191;-79
2022/09/02 08:38:40;;;;;;;4.30;3.97;;;;;;;29.73;30.45;99209.88;4925650;29;20200;-79
2022/09/02 08:41:20;;;;;;;4.20;3.90;;;;;;;29.80;29.93;99206.22;4925956;29;20478;-79
2022/09/02 08:43:47;;;;;;;3.83;3.10;;;;;;;29.87;29.55;99206.94;4923017;29;20967;-79
2022/09/02 08:46:16;;;;;;;3.57;3.10;;;;;;;29.94;29.67;99210.34;4920964;29;20465;-79
2022/09/02 08:48:54;;;;;;;3.13;2.83;;;;;;;29.83;29.45;99209.28;4892931;29;20488;-79
2022/09/02 08:51:31;;;;;;;4.87;3.07;;;;;;;29.66;29.97;99214.56;4898797;29;20509;-79
2022/09/02 08:54:20;;;;;;;3.70;3.37;;;;;;;29.38;30.30;99204.31;4903445;29;20416;-79
2022/09/02 08:56:47;;;;;;;3.50;3.20;;;;;;;29.12;30.81;99202.81;4898392;29;20966;-79
2022/09/02 08:59:14;;;;;;;4.43;3.10;;;;;;;28.95;30.92;99205.28;4905922;29;20581;-79
2022/09/02 09:01:53;;;;;;;2.83;2.20;;;;;;;28.64;31.36;99208.97;4917941;29;20853;-78
2022/09/02 09:04:32;;;;;;;3.30;3.00;;;;;;;28.24;31.94;99212.84;4912890;29;20444;-79
2022/09/02 09:07:16;;;;;;;2.40;2.20;;;;;;;27.93;32.33;99213.78;4905593;29;20444;-79
2022/09/02 09:09:58;;;;;;;2.80;2.60;;;;;;;27.51;32.36;99213.41;4914062;29;20529;-79
2022/09/02 09:12:36;;;;;;;2.80;2.43;;;;;;;27.29;32.44;99212.91;4909682;29;20939;-78
2022/09/02 09:15:18;;;;;;;2.40;2.13;;;;;;;27.22;32.77;99200.50;4907532;29;20443;-78
2022/09/02 09:18:01;;;;;;;2.43;2.33;;;;;;;27.16;32.46;99202.16;4905081;29;20507;-78
2022/09/02 09:20:37;;;;;;;4.40;2.50;;;;;;;27.10;33.37;99195.75;4907624;29;20588;-79
2022/09/02 09:23:20;;;;;;;2.53;2.33;;;;;;;27.14;33.09;99199.69;4914467;29;20456;-79
2022/09/02 09:25:48;;;;;;;3.93;2.13;;;;;;;27.19;33.01;99190.97;4907497;29;20809;-79
2022/09/02 09:28:13;;;;;;;2.47;2.27;;;;;;;27.28;32.38;99191.56;4902329;29;20832;-79
2022/09/02 09:30:39;;;;;;;3.33;2.73;;;;;;;27.35;32.68;99181.56;4912237;29;20479;-79
2022/09/02 09:33:05;;;;;;;4.03;2.80;;;;;;;27.36;32.42;99178.66;4917548;29;20455;-79
2022/09/02 09:35:54;;;;;;;2.90;2.40;;;;;;;27.28;31.64;99175.38;4912044;29;20307;-79
2022/09/02 09:38:38;;;;;;;2.60;2.10;;;;;;;27.23;30.71;99167.94;4893333;29;20220;-79
2022/09/02 09:41:11;;;;;;;2.80;2.60;;;;;;;27.10;31.34;99173.38;4901679;29;20499;-79
2022/09/02 09:43:36;;;;;;;2.63;2.40;;;;;;;27.07;31.77;99174.63;4899091;29;20563;-79
2022/09/02 09:46:27;;;;;;;3.50;3.03;;;;;;;26.97;32.09;99166.19;4903947;29;20467;-83
2022/09/02 09:48:53;;;;;;;2.47;2.27;;;;;;;26.92;32.06;99163.28;4900446;29;20196;-83
2022/09/02 09:51:19;;;;;;;3.20;2.03;;;;;;;26.93;32.54;99151.50;4906516;29;20513;-83
2022/09/02 09:53:45;;;;;;;2.90;2.70;;;;;;;26.84;32.81;99155.44;4902447;29;20665;-82
2022/09/02 09:56:14;;;;;;;3.47;1.70;;;;;;;26.81;32.62;99162.09;4905214;29;20207;-83
2022/09/02 09:58:39;;;;;;;2.67;2.00;;;;;;;26.81;32.69;99153.19;4906440;29;20471;-82
2022/09/02 10:01:17;;;;;;;2.10;1.83;;;;;;;26.86;31.70;99153.38;4907172;29;20506;-82
2022/09/02 10:04:27;;;;;;;2.00;1.80;;;;;;;26.86;31.39;99145.28;4907567;29;20216;-83
2022/09/02 10:06:52;;;;;;;2.35;2.10;;;;;;;26.95;30.95;99141.31;4894455;29;20476;-83
2022/09/02 10:09:18;;;;;;;2.57;2.37;;;;;;;27.04;31.01;99142.72;4903361;29;20218;-83
2022/09/02 10:12:05;;;;;;;4.90;2.07;;;;;;;27.12;30.25;99144.34;4907131;29;20636;-83
2022/09/02 10:14:36;;;;;;;2.77;2.27;;;;;;;27.17;30.55;99135.63;4905567;29;20472;-83
2022/09/02 10:17:26;;;;;;;2.17;1.97;;;;;;;27.27;30.34;99134.09;4905265;29;21022;-83
2022/09/02 10:20:00;;;;;;;2.30;1.90;;;;;;;27.45;30.11;99146.03;4904319;29;20989;-78
2022/09/02 10:22:41;;;;;;;3.70;2.10;;;;;;;27.60;30.45;99135.75;4907230;29;20608;-79
2022/09/02 10:25:21;;;;;;;1.90;1.80;;;;;;;27.69;30.22;99137.13;4908299;29;20720;-78
2022/09/02 10:28:02;;;;;;;3.27;1.90;;;;;;;27.71;30.30;99145.81;4903183;29;20456;-78
2022/09/02 10:30:35;;;;;;;1.50;1.40;;;;;;;27.65;30.17;99140.47;4909912;29;20512;-79
2022/09/02 10:33:51;;;;;;;2.17;1.97;;;;;;;27.50;29.99;99136.22;4899214;29;20550;-78
2022/09/02 10:36:26;;;;;;;1.90;1.70;;;;;;;27.55;29.80;99133.69;4825624;29;20467;-78
2022/09/02 10:38:52;;;;;;;3.40;2.23;;;;;;;27.62;30.00;99128.25;4828700;29;20481;-78
2022/09/02 10:41:33;;;;;;;2.40;2.03;;;;;;;27.70;30.11;99129.84;4868885;29;20500;-78
2022/09/02 10:44:22;;;;;;;1.70;1.60;;;;;;;27.84;29.90;99128.72;4908980;29;20906;-79
2022/09/02 10:47:00;;;;;;;2.40;2.00;;;;;;;28.02;29.74;99122.53;4905322;29;20495;-79
2022/09/02 10:49:25;;;;;;;2.00;1.80;;;;;;;28.09;29.71;99122.47;4901450;29;20490;-79
2022/09/02 10:52:11;;;;;;;1.90;1.70;;;;;;;28.23;29.11;99124.78;4901576;29;20926;-78
2022/09/02 10:54:43;;;;;;;2.80;2.10;;;;;;;28.28;28.98;99113.31;4408028;29;9999917;-78
2022/09/02 10:57:18;;;;;;;2.30;2.10;;;;;;;28.23;28.97;99107.78;4927811;29;20474;-78
2022/09/02 10:59:54;;;;;;;1.80;1.70;;;;;;;28.17;28.63;99108.66;4927072;29;20458;-79
2022/09/02 11:02:22;;;;;;;2.00;1.90;;;;;;;28.02;28.94;99107.13;4925356;29;20499;-79
2022/09/02 11:05:00;;;;;;;2.13;1.90;;;;;;;27.88;29.56;99108.31;4933651;29;20464;-79
2022/09/02 11:07:54;;;;;;;2.57;1.70;;;;;;;27.89;29.74;99101.88;4925316;29;20605;-78
2022/09/02 11:10:27;;;;;;;2.33;1.73;;;;;;;27.93;29.56;99103.09;4915606;29;20979;-78
2022/09/02 11:13:03;;;;;;;2.27;2.07;;;;;;;27.97;29.19;99095.38;4923789;29;20458;-78
2022/09/02 11:15:42;;;;;;;1.60;1.50;;;;;;;28.02;29.72;99099.03;4921916;29;20458;-78
2022/09/02 11:18:29;;;;;;;2.03;1.80;;;;;;;28.11;29.44;99096.03;4921441;29;20481;-78
2022/09/02 11:21:07;;;;;;;2.13;2.03;;;;;;;28.10;29.35;99091.72;4928047;29;21409;-78
2022/09/02 11:23:40;;;;;;;1.83;1.73;;;;;;;28.12;29.62;99095.84;4917694;29;20599;-78
2022/09/02 11:26:26;;;;;;;2.03;1.83;;;;;;;28.15;29.42;99089.16;4925176;29;21021;-78
2022/09/02 11:29:01;;;;;;;2.43;1.80;;;;;;;28.20;29.38;99094.72;4922958;29;21038;-78
2022/09/02 11:31:39;;;;;;;2.10;2.00;;;;;;;28.20;29.17;99089.31;4916990;29;20477;-78
2022/09/02 11:34:24;;;;;;;2.13;2.00;;;;;;;28.17;29.61;99087.06;4921359;29;20526;-78
2022/09/02 11:36:50;;;;;;;3.00;2.00;;;;;;;28.13;29.82;99094.78;4928879;29;20475;-78
2022/09/02 11:39:26;;;;;;;2.40;2.10;;;;;;;28.11;29.56;99088.78;4905404;29;20463;-78
2022/09/02 11:42:08;;;;;;;8.10;3.03;;;;;;;28.02;30.38;99088.25;4919669;29;20477;-78
2022/09/02 11:44:43;;;;;;;2.80;2.17;;;;;;;27.95;30.13;99089.34;4940398;29;20470;-78
2022/09/02 11:47:40;;;;;;;2.37;1.97;;;;;;;27.75;29.56;99081.44;4934807;29;20954;-78
2022/09/02 11:50:12;;;;;;;2.50;2.30;;;;;;;27.69;30.21;99080.44;4906717;29;20624;-78
2022/09/02 11:52:56;;;;;;;2.03;1.83;;;;;;;27.78;30.34;99076.41;4918159;29;21588;-78